Time;durP1;ratioP1;P1;durP2;ratioP2;P2;SDS_P1;SDS_P2;PMS_P1;PMS_P2;Temp;Humidity;BMP_temperature;BMP_pressure;BME280_temperature;BME280_humidity;BME280_pressure;Samples;Min_cycle;Max_cycle;Signal;HPM_P1;HPM_P2
2022/10/13 00:01:40;;;;;;;0.20;0.20;;;9.10;99.90;;;;;;5031216;28;20932;-94
2022/10/13 00:04:05;;;;;;;0.20;0.20;;;9.20;99.90;;;;;;5036879;28;20233;-94
2022/10/13 00:06:31;;;;;;;0.23;0.23;;;9.20;99.90;;;;;;5034193;28;20442;-95
2022/10/13 00:08:57;;;;;;;0.20;0.20;;;9.20;99.90;;;;;;5034739;28;20639;-96
2022/10/13 00:11:27;;;;;;;0.20;0.20;;;9.20;99.90;;;;;;5032824;28;20187;-94
2022/10/13 00:14:01;;;;;;;0.30;0.30;;;9.20;99.90;;;;;;5034850;28;20532;-94
2022/10/13 00:16:28;;;;;;;0.30;0.30;;;9.20;99.90;;;;;;5034223;28;20513;-95
2022/10/13 00:18:53;;;;;;;0.20;0.20;;;9.20;99.90;;;;;;5033485;28;20478;-94
2022/10/13 00:21:22;;;;;;;0.20;0.20;;;9.20;99.90;;;;;;5029201;28;20449;-94
2022/10/13 00:23:48;;;;;;;0.30;0.30;;;9.10;99.90;;;;;;5033821;28;20477;-94
2022/10/13 00:26:15;;;;;;;0.30;0.30;;;9.10;99.90;;;;;;5032669;28;20434;-94
2022/10/13 00:28:41;;;;;;;0.20;0.20;;;9.10;99.90;;;;;;5034395;28;20448;-93
2022/10/13 00:31:27;;;;;;;0.30;0.30;;;9.10;99.90;;;;;;5033183;28;20430;-94
2022/10/13 00:33:53;;;;;;;0.20;0.20;;;9.10;99.90;;;;;;5024612;28;20482;-95
2022/10/13 00:36:20;;;;;;;0.20;0.20;;;9.00;99.90;;;;;;5032254;28;20470;-94
2022/10/13 00:38:45;;;;;;;0.27;0.27;;;9.00;99.90;;;;;;5026635;28;20553;-93
2022/10/13 00:41:11;;;;;;;0.30;0.30;;;9.10;99.90;;;;;;5028676;28;20439;-95
2022/10/13 00:44:00;;;;;;;0.20;0.20;;;9.00;99.90;;;;;;5033690;28;20274;-94
2022/10/13 00:46:31;;;;;;;0.30;0.30;;;9.00;99.90;;;;;;5037539;28;20191;-94
2022/10/13 00:49:00;;;;;;;0.30;0.30;;;9.00;99.90;;;;;;5024808;28;20454;-93
2022/10/13 00:51:31;;;;;;;0.20;0.20;;;9.00;99.90;;;;;;5030060;28;20825;-94
2022/10/13 00:53:58;;;;;;;0.20;0.20;;;8.90;99.90;;;;;;5024980;28;20446;-94
2022/10/13 00:56:26;;;;;;;0.20;0.20;;;9.00;99.90;;;;;;5033834;28;20438;-94
2022/10/13 00:58:53;;;;;;;0.20;0.20;;;8.80;99.90;;;;;;5032534;28;21059;-94
2022/10/13 01:01:19;;;;;;;0.20;0.20;;;8.80;99.90;;;;;;5031838;28;20489;-94
2022/10/13 01:03:44;;;;;;;0.30;0.30;;;8.70;99.90;;;;;;5034115;28;20479;-94
2022/10/13 01:06:11;;;;;;;0.20;0.20;;;8.80;99.90;;;;;;5033612;28;20739;-94
2022/10/13 01:08:37;;;;;;;0.20;0.20;;;8.80;99.90;;;;;;5027471;28;20184;-93
2022/10/13 01:11:08;;;;;;;0.30;0.30;;;8.80;99.90;;;;;;5031748;28;20508;-93
2022/10/13 01:13:49;;;;;;;0.30;0.30;;;8.70;99.90;;;;;;5034781;28;20198;-94
2022/10/13 01:16:29;;;;;;;0.20;0.20;;;8.80;99.90;;;;;;5024987;28;20454;-94
2022/10/13 01:19:03;;;;;;;0.27;0.27;;;8.80;99.90;;;;;;5033607;28;20485;-94
2022/10/13 01:21:48;;;;;;;0.30;0.30;;;8.90;99.90;;;;;;5015244;28;20514;-94
2022/10/13 01:24:35;;;;;;;0.20;0.20;;;8.90;99.90;;;;;;5025911;28;20449;-93
2022/10/13 01:27:14;;;;;;;0.23;0.23;;;8.80;99.90;;;;;;5035605;28;20945;-94
2022/10/13 01:30:07;;;;;;;0.30;0.30;;;8.90;99.90;;;;;;5029649;28;20836;-94
2022/10/13 01:32:53;;;;;;;0.30;0.30;;;8.90;99.90;;;;;;5029696;28;20453;-93
2022/10/13 01:35:42;;;;;;;0.30;0.30;;;8.90;99.90;;;;;;5017777;28;20451;-94
2022/10/13 01:38:36;;;;;;;0.30;0.30;;;8.90;99.90;;;;;;5032823;28;20466;-94
2022/10/13 01:41:18;;;;;;;0.20;0.20;;;8.90;99.90;;;;;;5024707;28;20445;-94
2022/10/13 01:43:52;;;;;;;0.30;0.30;;;8.90;99.90;;;;;;5026081;28;20481;-94
2022/10/13 01:46:23;;;;;;;0.20;0.20;;;8.90;99.90;;;;;;5030757;28;20425;-94
2022/10/13 01:48:53;;;;;;;0.20;0.20;;;8.90;99.90;;;;;;5035832;28;20438;-93
2022/10/13 01:51:22;;;;;;;0.30;0.30;;;8.90;99.90;;;;;;5031968;28;20434;-92
2022/10/13 01:53:48;;;;;;;0.30;0.30;;;8.80;99.90;;;;;;5034213;28;20944;-94
2022/10/13 01:56:14;;;;;;;0.20;0.20;;;8.80;99.90;;;;;;5034454;28;20450;-94
2022/10/13 01:58:40;;;;;;;0.30;0.30;;;8.80;99.90;;;;;;5032380;28;20480;-93
2022/10/13 02:01:17;;;;;;;0.30;0.30;;;8.80;99.90;;;;;;5028805;28;20454;-95
2022/10/13 02:04:10;;;;;;;0.30;0.30;;;8.70;99.90;;;;;;5030998;28;20446;-94
2022/10/13 02:07:05;;;;;;;0.30;0.30;;;8.70;99.90;;;;;;5022354;28;21065;-93
2022/10/13 02:09:45;;;;;;;0.30;0.30;;;8.60;99.90;;;;;;5030379;28;20440;-93
2022/10/13 02:13:00;;;;;;;0.30;0.30;;;8.50;99.90;;;;;;5013813;28;20447;-93
2022/10/13 02:15:47;;;;;;;0.30;0.30;;;8.50;99.90;;;;;;5012342;28;20454;-93
2022/10/13 02:18:16;;;;;;;0.20;0.20;;;8.30;99.90;;;;;;5039244;28;21838;-95
2022/10/13 02:20:44;;;;;;;0.30;0.30;;;8.40;99.90;;;;;;5014838;28;20450;-93
2022/10/13 02:23:13;;;;;;;0.30;0.30;;;8.30;99.90;;;;;;5035102;28;20492;-95
2022/10/13 02:25:39;;;;;;;0.30;0.30;;;8.30;99.90;;;;;;5032240;28;20934;-94
2022/10/13 02:28:06;;;;;;;0.30;0.30;;;8.20;99.90;;;;;;5029338;28;20497;-94
2022/10/13 02:30:32;;;;;;;0.30;0.30;;;8.20;99.90;;;;;;5036244;28;20474;-94
2022/10/13 02:33:01;;;;;;;0.30;0.30;;;8.20;99.90;;;;;;5034875;28;20445;-94
2022/10/13 02:35:28;;;;;;;0.27;0.27;;;8.10;99.90;;;;;;5032815;28;20964;-93
2022/10/13 02:37:54;;;;;;;0.30;0.30;;;8.10;99.90;;;;;;5029947;28;20459;-94
2022/10/13 02:40:20;;;;;;;0.30;0.30;;;8.10;99.90;;;;;;5017081;28;20435;-94
2022/10/13 02:42:45;;;;;;;0.30;0.30;;;8.00;99.90;;;;;;5034365;28;20733;-94
2022/10/13 02:45:11;;;;;;;0.30;0.30;;;8.00;99.90;;;;;;5035194;28;20192;-94
2022/10/13 02:47:36;;;;;;;0.30;0.30;;;8.00;99.90;;;;;;5026680;28;20179;-95
2022/10/13 02:50:02;;;;;;;0.30;0.30;;;8.00;99.90;;;;;;5036165;28;20266;-93
2022/10/13 02:52:27;;;;;;;0.30;0.30;;;7.90;99.90;;;;;;5026400;28;20189;-95
2022/10/13 02:54:53;;;;;;;0.20;0.20;;;7.90;99.90;;;;;;5024423;28;20183;-94
2022/10/13 02:57:19;;;;;;;0.30;0.30;;;7.90;99.90;;;;;;5030788;28;20196;-94
2022/10/13 02:59:44;;;;;;;0.30;0.30;;;7.90;99.90;;;;;;5030739;28;20212;-94
2022/10/13 03:02:10;;;;;;;0.30;0.30;;;7.90;99.90;;;;;;5032196;28;20198;-93
2022/10/13 03:04:35;;;;;;;0.30;0.30;;;7.90;99.90;;;;;;5031924;28;20206;-94
2022/10/13 03:07:01;;;;;;;0.30;0.30;;;7.90;99.90;;;;;;5028325;28;20241;-94
2022/10/13 03:09:27;;;;;;;0.30;0.30;;;7.80;99.90;;;;;;5030826;28;20206;-95
2022/10/13 03:11:53;;;;;;;0.30;0.30;;;7.90;99.90;;;;;;5034229;28;20449;-94
2022/10/13 03:14:18;;;;;;;0.30;0.30;;;7.90;99.90;;;;;;5035069;28;20218;-94
2022/10/13 03:16:44;;;;;;;0.30;0.30;;;7.90;99.90;;;;;;5037408;28;20264;-93
2022/10/13 03:19:10;;;;;;;0.30;0.30;;;8.00;99.90;;;;;;5034677;28;20216;-94
2022/10/13 03:21:37;;;;;;;0.30;0.30;;;7.90;99.90;;;;;;5030504;28;20453;-93
2022/10/13 03:24:06;;;;;;;0.30;0.30;;;7.90;99.90;;;;;;5030115;28;20478;-94
2022/10/13 03:26:33;;;;;;;0.30;0.30;;;8.00;99.90;;;;;;5029902;28;20695;-94
2022/10/13 03:28:59;;;;;;;0.30;0.30;;;8.00;99.90;;;;;;5029116;28;20439;-94
2022/10/13 03:31:25;;;;;;;0.30;0.30;;;8.00;99.90;;;;;;5030508;28;21333;-93
2022/10/13 03:33:50;;;;;;;0.30;0.30;;;8.00;99.90;;;;;;5034651;28;20195;-94
2022/10/13 03:36:16;;;;;;;0.30;0.30;;;8.10;99.90;;;;;;5035246;28;20191;-94
2022/10/13 03:38:42;;;;;;;0.30;0.30;;;8.10;99.90;;;;;;5028087;28;20223;-94
2022/10/13 03:41:11;;;;;;;0.30;0.30;;;8.10;99.90;;;;;;5038275;28;20643;-92
2022/10/13 03:43:37;;;;;;;0.30;0.30;;;8.20;99.90;;;;;;5038641;28;20231;-94
2022/10/13 03:46:05;;;;;;;0.30;0.30;;;8.20;99.90;;;;;;5036300;28;20491;-93
2022/10/13 03:48:31;;;;;;;0.30;0.30;;;8.20;99.90;;;;;;5034158;28;20446;-94
2022/10/13 03:50:57;;;;;;;0.30;0.30;;;8.20;99.90;;;;;;5029521;28;20439;-93
2022/10/13 03:53:23;;;;;;;0.20;0.20;;;8.20;99.90;;;;;;5035891;28;20786;-92
2022/10/13 03:55:53;;;;;;;0.30;0.30;;;8.20;99.90;;;;;;5032715;28;20654;-94
2022/10/13 03:58:20;;;;;;;0.30;0.30;;;8.20;99.90;;;;;;5027041;28;20218;-94
2022/10/13 04:00:45;;;;;;;0.30;0.30;;;8.30;99.90;;;;;;5028753;28;20437;-94
2022/10/13 04:03:11;;;;;;;0.30;0.30;;;8.20;99.90;;;;;;5034327;28;20438;-94
2022/10/13 04:05:37;;;;;;;0.30;0.30;;;8.20;99.90;;;;;;5031893;28;20188;-93
2022/10/13 04:08:03;;;;;;;0.30;0.30;;;8.10;99.90;;;;;;5037069;28;20472;-94
2022/10/13 04:10:28;;;;;;;0.30;0.30;;;8.20;99.90;;;;;;5029213;28;20198;-94
2022/10/13 04:12:54;;;;;;;0.30;0.30;;;8.20;99.90;;;;;;5032440;28;20442;-94
2022/10/13 04:15:19;;;;;;;0.30;0.30;;;8.20;99.90;;;;;;5033633;28;20237;-93
2022/10/13 04:17:45;;;;;;;0.30;0.30;;;8.20;99.90;;;;;;5033529;28;20200;-95
2022/10/13 04:20:11;;;;;;;0.30;0.30;;;8.30;99.90;;;;;;5035980;28;20195;-94
2022/10/13 04:22:36;;;;;;;0.30;0.30;;;8.20;99.90;;;;;;5040445;28;20187;-94
2022/10/13 04:25:02;;;;;;;0.30;0.30;;;8.20;99.90;;;;;;5038949;28;20592;-93
2022/10/13 04:27:27;;;;;;;0.30;0.30;;;8.20;99.90;;;;;;5039936;28;20198;-93
2022/10/13 04:29:53;;;;;;;0.30;0.30;;;8.20;99.90;;;;;;5030144;28;20198;-92
2022/10/13 04:32:18;;;;;;;0.20;0.20;;;8.20;99.90;;;;;;5038058;28;20231;-95
2022/10/13 04:34:44;;;;;;;0.30;0.30;;;8.20;99.90;;;;;;5043073;28;20194;-95
2022/10/13 04:37:10;;;;;;;0.30;0.30;;;8.20;99.90;;;;;;5040038;28;20188;-93
2022/10/13 04:39:35;;;;;;;0.30;0.30;;;8.20;99.90;;;;;;5040897;28;20242;-93
2022/10/13 04:42:01;;;;;;;0.30;0.30;;;8.20;99.90;;;;;;5029948;28;20226;-93
2022/10/13 04:44:26;;;;;;;0.30;0.30;;;8.20;99.90;;;;;;5022192;28;20191;-92
2022/10/13 04:46:53;;;;;;;0.30;0.30;;;8.20;99.90;;;;;;5030743;28;20321;-94
2022/10/13 04:49:18;;;;;;;0.30;0.30;;;8.20;99.90;;;;;;5041250;28;20186;-93
2022/10/13 04:51:44;;;;;;;0.30;0.30;;;8.30;99.90;;;;;;5037730;28;20446;-94
2022/10/13 04:54:09;;;;;;;0.30;0.30;;;8.20;99.90;;;;;;5022727;28;20215;-94
2022/10/13 04:56:35;;;;;;;0.30;0.30;;;8.20;99.90;;;;;;5031044;28;20188;-94
2022/10/13 04:59:04;;;;;;;0.30;0.30;;;8.20;99.90;;;;;;5038715;28;20227;-93
2022/10/13 05:01:30;;;;;;;0.30;0.30;;;8.20;99.90;;;;;;5030278;28;20283;-94
2022/10/13 05:03:59;;;;;;;0.23;0.23;;;8.20;99.90;;;;;;5025121;28;20474;-92
2022/10/13 05:06:27;;;;;;;0.30;0.30;;;8.20;99.90;;;;;;5034098;28;20446;-94
2022/10/13 05:08:52;;;;;;;0.30;0.30;;;8.20;99.90;;;;;;5034248;28;20450;-94
2022/10/13 05:11:19;;;;;;;0.30;0.30;;;8.30;99.90;;;;;;5029281;28;20441;-92
2022/10/13 05:13:45;;;;;;;0.30;0.30;;;8.20;99.90;;;;;;5026496;28;20327;-95
2022/10/13 05:16:12;;;;;;;0.30;0.30;;;8.30;99.90;;;;;;5031349;28;20808;-92
2022/10/13 05:18:39;;;;;;;0.30;0.30;;;8.30;99.90;;;;;;5021315;28;20518;-94
2022/10/13 05:21:13;;;;;;;0.30;0.30;;;8.30;99.90;;;;;;5023319;28;21284;-94
2022/10/13 05:23:39;;;;;;;0.30;0.30;;;8.30;99.90;;;;;;5020624;28;21216;-94
2022/10/13 05:26:08;;;;;;;0.30;0.30;;;8.30;99.90;;;;;;5032284;28;20473;-93
2022/10/13 05:28:33;;;;;;;0.30;0.30;;;8.30;99.90;;;;;;5034898;28;20961;-93
2022/10/13 05:31:14;;;;;;;0.30;0.30;;;8.30;99.90;;;;;;5029312;28;20446;-93
2022/10/13 05:33:40;;;;;;;0.27;0.27;;;8.30;99.90;;;;;;5033917;28;20191;-94
2022/10/13 05:36:09;;;;;;;0.30;0.30;;;8.20;99.90;;;;;;5036639;28;20946;-95
2022/10/13 05:38:35;;;;;;;0.30;0.30;;;8.20;99.90;;;;;;5035194;28;20493;-93
2022/10/13 05:41:04;;;;;;;0.30;0.30;;;8.20;99.90;;;;;;5036518;28;20439;-94
2022/10/13 05:43:31;;;;;;;0.30;0.30;;;8.20;99.90;;;;;;5029138;28;20851;-95
2022/10/13 05:45:57;;;;;;;0.30;0.30;;;8.10;99.90;;;;;;5044588;28;20442;-95
2022/10/13 05:48:23;;;;;;;0.30;0.30;;;8.20;99.90;;;;;;5035584;28;20922;-92
2022/10/13 05:50:48;;;;;;;0.20;0.20;;;8.20;99.90;;;;;;5035077;28;20442;-94
2022/10/13 05:53:14;;;;;;;0.30;0.30;;;8.10;99.90;;;;;;5039440;28;20191;-94
2022/10/13 05:55:39;;;;;;;0.27;0.27;;;8.20;99.90;;;;;;5038654;28;20187;-94
2022/10/13 05:58:05;;;;;;;0.30;0.30;;;8.20;99.90;;;;;;5051068;28;20233;-95
2022/10/13 06:00:31;;;;;;;0.30;0.30;;;8.10;99.90;;;;;;5047058;28;20202;-95
2022/10/13 06:03:06;;;;;;;0.30;0.30;;;8.20;99.90;;;;;;5040932;28;20231;-96
2022/10/13 06:05:31;;;;;;;0.30;0.30;;;8.10;99.90;;;;;;5034544;28;20191;-93
2022/10/13 06:07:57;;;;;;;0.30;0.30;;;8.20;99.90;;;;;;5033421;28;20450;-94
2022/10/13 06:10:23;;;;;;;0.30;0.30;;;8.20;99.90;;;;;;5033893;28;20191;-93
2022/10/13 06:12:49;;;;;;;0.30;0.30;;;8.20;99.90;;;;;;5030106;28;20946;-94
2022/10/13 06:15:15;;;;;;;0.30;0.30;;;8.20;99.90;;;;;;5023310;28;20553;-94
2022/10/13 06:17:40;;;;;;;0.30;0.30;;;8.20;99.90;;;;;;5022473;28;20188;-92
2022/10/13 06:20:07;;;;;;;0.30;0.30;;;8.20;99.90;;;;;;5026257;28;20192;-95
2022/10/13 06:22:34;;;;;;;0.30;0.30;;;8.20;99.90;;;;;;5030088;28;20194;-94
2022/10/13 06:24:59;;;;;;;0.30;0.30;;;8.30;99.90;;;;;;5034542;28;20438;-93
2022/10/13 06:27:25;;;;;;;0.30;0.30;;;8.30;99.90;;;;;;5032109;28;20455;-93
2022/10/13 06:29:51;;;;;;;0.30;0.30;;;8.30;99.90;;;;;;5019660;28;20184;-93
2022/10/13 06:32:16;;;;;;;0.20;0.20;;;8.30;99.90;;;;;;5037132;28;20199;-94
2022/10/13 06:34:42;;;;;;;0.20;0.20;;;8.40;99.90;;;;;;5035600;28;20194;-94
2022/10/13 06:37:07;;;;;;;0.30;0.30;;;8.40;99.90;;;;;;5024233;28;20608;-93
2022/10/13 06:39:34;;;;;;;0.30;0.30;;;8.50;99.90;;;;;;5032258;28;20330;-92
2022/10/13 06:42:00;;;;;;;0.30;0.30;;;8.50;99.90;;;;;;5029725;28;20273;-93
2022/10/13 06:44:25;;;;;;;0.30;0.30;;;8.50;99.90;;;;;;5030876;28;20453;-90
2022/10/13 06:46:51;;;;;;;0.30;0.30;;;8.50;99.90;;;;;;5028280;28;20184;-92
2022/10/13 06:49:16;;;;;;;0.30;0.30;;;8.60;99.90;;;;;;5025528;28;20198;-91
2022/10/13 06:51:42;;;;;;;0.30;0.30;;;8.60;99.90;;;;;;5029821;28;20179;-92
2022/10/13 06:54:07;;;;;;;0.30;0.30;;;8.60;99.90;;;;;;5027543;28;20621;-91
2022/10/13 06:56:33;;;;;;;0.30;0.30;;;8.60;99.90;;;;;;5025337;28;20707;-91
2022/10/13 06:58:58;;;;;;;0.30;0.30;;;8.60;99.90;;;;;;5031215;28;20223;-92
2022/10/13 07:01:24;;;;;;;0.30;0.30;;;8.70;99.90;;;;;;5030357;28;20192;-90
2022/10/13 07:03:50;;;;;;;0.30;0.30;;;8.60;99.90;;;;;;5028204;28;20739;-92
2022/10/13 07:06:16;;;;;;;0.30;0.30;;;8.70;99.90;;;;;;5029735;28;20199;-92
2022/10/13 07:08:42;;;;;;;0.30;0.30;;;8.70;99.90;;;;;;5027452;28;20439;-93
2022/10/13 07:11:11;;;;;;;0.30;0.30;;;8.80;99.90;;;;;;5032312;28;20450;-93
2022/10/13 07:13:37;;;;;;;0.30;0.30;;;8.80;99.90;;;;;;5026302;28;20226;-93
2022/10/13 07:16:04;;;;;;;0.30;0.30;;;8.90;99.90;;;;;;5049277;28;20449;-92
2022/10/13 07:18:30;;;;;;;0.30;0.30;;;8.90;99.90;;;;;;5035015;28;20268;-91
2022/10/13 07:20:57;;;;;;;0.30;0.30;;;9.00;99.90;;;;;;5040274;28;20450;-94
2022/10/13 07:23:23;;;;;;;0.30;0.30;;;9.10;99.90;;;;;;5038226;28;20450;-92
2022/10/13 07:25:49;;;;;;;0.20;0.20;;;9.20;99.90;;;;;;5024283;28;20847;-95
2022/10/13 07:28:14;;;;;;;0.30;0.30;;;9.30;99.90;;;;;;5034766;28;21707;-93
2022/10/13 07:30:40;;;;;;;0.20;0.20;;;9.30;99.90;;;;;;5035131;28;20198;-93
2022/10/13 07:33:05;;;;;;;0.20;0.20;;;9.40;99.90;;;;;;5037622;28;20528;-94
2022/10/13 07:35:31;;;;;;;0.30;0.30;;;9.40;99.90;;;;;;5030235;28;20653;-94
2022/10/13 07:37:57;;;;;;;0.20;0.20;;;9.50;99.90;;;;;;5025480;28;20706;-92
2022/10/13 07:40:23;;;;;;;0.20;0.20;;;9.70;99.90;;;;;;5033784;28;20486;-91
2022/10/13 07:42:48;;;;;;;0.20;0.20;;;9.70;99.90;;;;;;5023049;28;20583;-92
2022/10/13 07:45:14;;;;;;;0.30;0.30;;;9.80;99.90;;;;;;5030088;28;20813;-92
2022/10/13 07:47:39;;;;;;;0.20;0.20;;;9.80;99.90;;;;;;5032410;28;20191;-93
2022/10/13 07:50:05;;;;;;;0.20;0.20;;;9.90;99.90;;;;;;5037037;28;20196;-95
2022/10/13 07:52:31;;;;;;;0.20;0.20;;;9.90;99.90;;;;;;5031304;28;20663;-89
2022/10/13 07:54:56;;;;;;;0.20;0.20;;;9.90;99.90;;;;;;5026107;28;20453;-91
2022/10/13 07:57:25;;;;;;;0.20;0.20;;;9.90;99.90;;;;;;5021983;28;20330;-92
2022/10/13 07:59:51;;;;;;;0.20;0.20;;;9.90;99.90;;;;;;5031026;28;20212;-92
2022/10/13 08:02:16;;;;;;;0.20;0.20;;;9.90;99.90;;;;;;5028845;28;20445;-90
2022/10/13 08:04:42;;;;;;;0.20;0.20;;;10.00;99.90;;;;;;5026843;28;20214;-88
2022/10/13 08:07:08;;;;;;;0.20;0.20;;;10.00;99.90;;;;;;5033033;28;20254;-92
2022/10/13 08:09:33;;;;;;;0.20;0.20;;;9.90;99.90;;;;;;5026280;28;20195;-90
2022/10/13 08:11:59;;;;;;;0.20;0.20;;;10.00;99.90;;;;;;5035709;28;20447;-90
2022/10/13 08:14:25;;;;;;;0.20;0.20;;;10.00;99.90;;;;;;5028710;28;20195;-94
2022/10/13 08:16:50;;;;;;;0.20;0.20;;;10.10;99.90;;;;;;5022927;28;20176;-87
2022/10/13 08:19:17;;;;;;;0.20;0.20;;;10.10;99.90;;;;;;5029598;28;20229;-89
2022/10/13 08:21:42;;;;;;;0.20;0.20;;;10.10;99.90;;;;;;5029441;28;20187;-90
2022/10/13 08:24:13;;;;;;;0.20;0.20;;;10.20;99.90;;;;;;5031154;28;20451;-90
2022/10/13 08:26:39;;;;;;;0.20;0.20;;;10.20;99.90;;;;;;5018329;28;20218;-92
2022/10/13 08:29:05;;;;;;;0.30;0.30;;;10.20;99.90;;;;;;5032186;28;20453;-91
2022/10/13 08:31:30;;;;;;;0.20;0.20;;;10.20;99.90;;;;;;5030027;28;20449;-93
2022/10/13 08:33:56;;;;;;;0.20;0.20;;;10.30;99.90;;;;;;5030511;28;20525;-93
2022/10/13 08:36:21;;;;;;;0.20;0.20;;;10.30;99.90;;;;;;5026841;28;20195;-94
2022/10/13 08:38:47;;;;;;;0.20;0.20;;;10.40;99.90;;;;;;5034282;28;20255;-94
2022/10/13 08:41:17;;;;;;;0.20;0.20;;;10.50;99.90;;;;;;5031147;28;20527;-94
2022/10/13 08:43:50;;;;;;;0.20;0.20;;;10.50;99.90;;;;;;5036276;28;20227;-92
2022/10/13 08:46:25;;;;;;;0.20;0.20;;;10.50;99.90;;;;;;5035959;28;20592;-94
2022/10/13 08:48:51;;;;;;;0.20;0.20;;;10.50;99.90;;;;;;5028863;28;20438;-92
2022/10/13 08:51:17;;;;;;;0.20;0.20;;;10.40;99.90;;;;;;5023784;28;20450;-92
2022/10/13 08:53:45;;;;;;;0.20;0.20;;;10.40;99.90;;;;;;5037376;28;20179;-94
2022/10/13 08:56:19;;;;;;;0.20;0.20;;;10.50;99.90;;;;;;5031387;28;20442;-95
2022/10/13 08:58:45;;;;;;;0.20;0.20;;;10.50;99.90;;;;;;5025082;28;21009;-93
2022/10/13 09:01:16;;;;;;;0.20;0.20;;;10.60;99.90;;;;;;5033813;28;20950;-92
2022/10/13 09:04:16;;;;;;;0.20;0.20;;;10.60;99.90;;;;;;5022065;28;20505;-92
2022/10/13 09:06:51;;;;;;;0.20;0.20;;;10.70;99.90;;;;;;5024740;28;20541;-94
2022/10/13 09:09:16;;;;;;;0.20;0.20;;;10.60;99.90;;;;;;5032418;28;20448;-93
2022/10/13 09:11:47;;;;;;;0.20;0.20;;;10.60;99.90;;;;;;5030913;28;20446;-94
2022/10/13 09:14:23;;;;;;;0.20;0.20;;;10.60;99.90;;;;;;5030101;28;20270;-91
2022/10/13 09:16:51;;;;;;;0.20;0.20;;;10.60;99.90;;;;;;5033417;28;20434;-93
2022/10/13 09:19:32;;;;;;;0.20;0.20;;;10.60;99.90;;;;;;5033036;28;20515;-95
2022/10/13 09:22:23;;;;;;;0.20;0.20;;;10.70;99.90;;;;;;5033102;28;20433;-93
2022/10/13 09:25:10;;;;;;;0.20;0.20;;;10.80;99.90;;;;;;5032467;28;20937;-95
2022/10/13 09:28:08;;;;;;;0.20;0.20;;;10.80;99.90;;;;;;5031579;28;20457;-94
2022/10/13 09:30:35;;;;;;;0.20;0.20;;;10.90;99.90;;;;;;5025911;28;20491;-93
2022/10/13 09:33:07;;;;;;;0.20;0.20;;;10.90;99.90;;;;;;5034003;28;20485;-92
2022/10/13 09:35:36;;;;;;;0.20;0.20;;;10.90;99.90;;;;;;5029629;28;20449;-94
2022/10/13 09:38:03;;;;;;;0.20;0.20;;;11.10;99.90;;;;;;5033834;28;20513;-92
2022/10/13 09:40:30;;;;;;;0.20;0.20;;;11.20;99.90;;;;;;5040425;28;20457;-92
2022/10/13 09:42:57;;;;;;;0.20;0.20;;;11.20;99.90;;;;;;5043193;28;20568;-95
2022/10/13 09:45:25;;;;;;;0.20;0.20;;;11.20;99.90;;;;;;5026898;28;20451;-94
2022/10/13 09:48:02;;;;;;;0.20;0.20;;;11.20;99.90;;;;;;5037118;28;20492;-91
2022/10/13 09:50:30;;;;;;;0.20;0.20;;;11.20;99.90;;;;;;5022294;28;20426;-94
2022/10/13 09:53:20;;;;;;;0.20;0.20;;;11.20;99.90;;;;;;5029306;28;20626;-93
2022/10/13 09:55:48;;;;;;;0.20;0.20;;;11.30;99.90;;;;;;5034385;28;20465;-94
2022/10/13 09:58:24;;;;;;;0.20;0.20;;;11.30;99.90;;;;;;5040012;28;20469;-93
2022/10/13 10:00:51;;;;;;;0.20;0.20;;;11.30;99.90;;;;;;5043715;28;20453;-93
2022/10/13 10:03:34;;;;;;;0.20;0.20;;;11.40;99.90;;;;;;5039538;28;20449;-93
2022/10/13 10:06:02;;;;;;;0.20;0.20;;;11.40;99.90;;;;;;5034326;28;20448;-91
2022/10/13 10:08:46;;;;;;;0.20;0.20;;;11.50;99.90;;;;;;5043156;28;20468;-96
2022/10/13 10:11:17;;;;;;;0.20;0.20;;;11.50;99.90;;;;;;5029331;28;20450;-93
2022/10/13 10:13:42;;;;;;;0.20;0.20;;;11.50;99.90;;;;;;5033447;28;20556;-92
2022/10/13 10:16:14;;;;;;;0.20;0.20;;;11.50;99.90;;;;;;5035820;28;20438;-94
2022/10/13 10:19:09;;;;;;;0.20;0.20;;;11.50;99.90;;;;;;5029838;28;20234;-92
2022/10/13 10:21:55;;;;;;;0.20;0.20;;;11.50;99.90;;;;;;5027164;28;20440;-93
2022/10/13 10:24:47;;;;;;;0.20;0.20;;;11.50;99.90;;;;;;5034567;28;20480;-92
2022/10/13 10:27:37;;;;;;;0.20;0.20;;;11.50;99.90;;;;;;5033481;28;20442;-94
2022/10/13 10:30:13;;;;;;;0.20;0.20;;;11.50;99.90;;;;;;5034583;28;20422;-93
2022/10/13 10:33:01;;;;;;;0.10;0.10;;;11.50;99.90;;;;;;5038759;28;20635;-93
2022/10/13 10:36:05;;;;;;;0.20;0.20;;;11.50;99.90;;;;;;5035012;28;20426;-93
2022/10/13 10:38:50;;;;;;;0.20;0.20;;;11.50;99.90;;;;;;5021624;28;20502;-89
2022/10/13 10:41:59;;;;;;;0.20;0.20;;;11.50;99.90;;;;;;5025146;28;20472;-91
2022/10/13 10:44:37;;;;;;;0.20;0.20;;;11.60;99.90;;;;;;5012556;28;20453;-94
2022/10/13 10:47:18;;;;;;;0.20;0.20;;;11.60;99.90;;;;;;5033049;28;20532;-87
2022/10/13 10:49:44;;;;;;;0.20;0.20;;;11.60;99.90;;;;;;5029876;28;20790;-93
2022/10/13 10:52:23;;;;;;;0.20;0.20;;;11.60;99.90;;;;;;5035459;28;20447;-93
2022/10/13 10:55:02;;;;;;;0.20;0.20;;;11.70;99.90;;;;;;5036417;28;20481;-94
2022/10/13 10:57:41;;;;;;;0.20;0.20;;;11.70;99.90;;;;;;5020787;28;20445;-92
2022/10/13 11:00:17;;;;;;;0.20;0.20;;;11.70;99.90;;;;;;5033927;28;20565;-92
2022/10/13 11:03:07;;;;;;;0.20;0.20;;;11.80;99.90;;;;;;5018929;28;20478;-95
2022/10/13 11:06:04;;;;;;;0.20;0.20;;;11.90;99.90;;;;;;5026760;28;20606;-92
2022/10/13 11:08:40;;;;;;;0.20;0.20;;;12.00;99.90;;;;;;5028510;28;20949;-89
2022/10/13 11:11:21;;;;;;;0.20;0.20;;;12.10;99.90;;;;;;5034953;28;20493;-87
2022/10/13 11:13:54;;;;;;;0.20;0.20;;;12.20;99.90;;;;;;5032222;28;20462;-86
2022/10/13 11:16:37;;;;;;;0.10;0.10;;;12.10;99.90;;;;;;5029242;28;20450;-92
2022/10/13 11:19:28;;;;;;;0.20;0.20;;;12.10;99.90;;;;;;5049597;28;20482;-92
2022/10/13 11:21:54;;;;;;;0.20;0.20;;;12.10;99.90;;;;;;5031987;28;20458;-90
2022/10/13 11:24:41;;;;;;;0.20;0.20;;;12.00;99.90;;;;;;5034584;28;20953;-93
2022/10/13 11:27:06;;;;;;;0.20;0.20;;;12.00;99.90;;;;;;5033769;28;20187;-92
2022/10/13 11:29:56;;;;;;;0.20;0.20;;;12.00;99.90;;;;;;5034161;28;21029;-93
2022/10/13 11:35:05;;;;;;;0.20;0.20;;;12.10;99.90;;;;;;5031811;28;20441;-93
2022/10/13 11:37:59;;;;;;;0.20;0.20;;;12.20;99.90;;;;;;5031745;28;20462;-88
2022/10/13 11:40:36;;;;;;;0.10;0.10;;;12.30;99.90;;;;;;5031904;28;20485;-88
2022/10/13 11:43:26;;;;;;;0.20;0.20;;;12.40;99.90;;;;;;5028524;28;21033;-89
2022/10/13 11:46:13;;;;;;;0.20;0.20;;;12.30;99.90;;;;;;5043247;28;20938;-90
2022/10/13 11:49:13;;;;;;;0.20;0.20;;;12.30;99.90;;;;;;5024291;28;20434;-92
2022/10/13 11:52:07;;;;;;;0.17;0.17;;;12.20;99.90;;;;;;5042150;23;20493;-90
2022/10/13 11:54:38;;;;;;;0.20;0.20;;;12.30;99.90;;;;;;5033054;28;20902;-92
2022/10/13 11:57:21;;;;;;;0.20;0.20;;;12.60;99.90;;;;;;5026228;28;20447;-84
2022/10/13 11:59:50;;;;;;;0.20;0.20;;;12.60;99.90;;;;;;5030792;28;20470;-90
2022/10/13 12:02:17;;;;;;;0.20;0.20;;;12.70;99.90;;;;;;5031332;28;20438;-90
2022/10/13 12:04:44;;;;;;;0.20;0.20;;;12.70;99.90;;;;;;5022434;28;20441;-94
2022/10/13 12:07:13;;;;;;;0.10;0.10;;;12.90;99.90;;;;;;5036853;28;20554;-95
2022/10/13 12:09:59;;;;;;;0.20;0.20;;;13.90;99.90;;;;;;5044949;28;20795;-94
2022/10/13 12:12:25;;;;;;;0.10;0.10;;;14.70;99.90;;;;;;5038005;28;20484;-91
2022/10/13 12:14:53;;;;;;;0.10;0.10;;;14.70;99.90;;;;;;5038724;28;20457;-96
2022/10/13 12:17:25;;;;;;;0.10;0.10;;;14.30;99.90;;;;;;5045387;28;20486;-93
2022/10/13 12:19:57;;;;;;;0.10;0.10;;;13.90;99.90;;;;;;5033451;28;20497;-93
2022/10/13 12:22:23;;;;;;;0.20;0.20;;;13.70;99.90;;;;;;5038723;28;20507;-94
2022/10/13 12:25:05;;;;;;;0.10;0.10;;;13.60;99.90;;;;;;5143217;23;20583;-96
2022/10/13 12:27:43;;;;;;;0.20;0.20;;;13.60;99.90;;;;;;5039726;23;20489;-95
2022/10/13 12:30:27;;;;;;;0.10;0.10;;;13.60;99.90;;;;;;5038688;28;20441;-96
2022/10/13 12:32:55;;;;;;;0.10;0.10;;;13.60;99.90;;;;;;5045911;28;20442;-96
2022/10/13 12:35:30;;;;;;;0.10;0.10;;;13.70;99.90;;;;;;5040043;28;20438;-96
2022/10/13 12:37:59;;;;;;;0.10;0.10;;;13.70;99.90;;;;;;5038084;28;20455;-96
2022/10/13 12:40:25;;;;;;;0.20;0.20;;;13.60;99.90;;;;;;5023019;28;20515;-94
2022/10/13 12:45:24;;;;;;;0.10;0.10;;;13.40;99.90;;;;;;5049260;22;20515;-96
2022/10/13 12:47:52;;;;;;;0.10;0.10;;;13.30;99.90;;;;;;5052234;22;20494;-94
2022/10/13 12:50:24;;;;;;;0.10;0.10;;;13.20;99.90;;;;;;5029989;28;20526;-96
2022/10/13 12:52:52;;;;;;;0.20;0.20;;;13.20;99.90;;;;;;5033312;23;20504;-95
2022/10/13 12:55:20;;;;;;;0.13;0.13;;;13.20;99.90;;;;;;5022167;28;20484;-96
2022/10/13 12:57:48;;;;;;;0.10;0.10;;;13.20;99.90;;;;;;5004571;28;20455;-96
2022/10/13 13:00:25;;;;;;;0.10;0.10;;;13.40;99.90;;;;;;5002030;28;20584;-96
2022/10/13 13:02:52;;;;;;;0.10;0.10;;;13.50;99.90;;;;;;5038503;23;20497;-93
2022/10/13 13:05:39;;;;;;;0.10;0.10;;;13.50;99.90;;;;;;5038096;28;20452;-96
2022/10/13 13:08:28;;;;;;;0.20;0.20;;;13.40;99.90;;;;;;5036899;28;20472;-96
2022/10/13 13:11:18;;;;;;;0.20;0.20;;;13.20;99.90;;;;;;5235259;22;21412;-93
2022/10/13 13:13:43;;;;;;;0.20;0.20;;;13.10;99.90;;;;;;5082566;28;20428;-95
2022/10/13 13:16:18;;;;;;;0.20;0.20;;;13.10;99.90;;;;;;5084206;28;20458;-93
2022/10/13 13:18:46;;;;;;;0.20;0.20;;;13.10;99.90;;;;;;5068572;28;20225;-86